Time;durP1;ratioP1;P1;durP2;ratioP2;P2;SDS_P1;SDS_P2;PMS_P1;PMS_P2;Temp;Humidity;BMP_temperature;BMP_pressure;BME280_temperature;BME280_humidity;BME280_pressure;Samples;Min_cycle;Max_cycle;Signal;HPM_P1;HPM_P2
2022/10/23 00:01:55;;;;;;;;;;;12.40;99.90;;;;;;12558078;28;19929;-38
2022/10/23 00:07:58;;;;;;;;;;;12.30;99.90;;;;;;12555382;28;19925;-38
2022/10/23 00:14:01;;;;;;;;;;;12.30;99.90;;;;;;12530049;28;19925;-38
2022/10/23 00:20:04;;;;;;;;;;;12.30;99.90;;;;;;12526068;28;19925;-38
2022/10/23 00:26:07;;;;;;;;;;;12.20;99.90;;;;;;12529188;28;19925;-40
2022/10/23 00:32:08;;;;;;;;;;;12.30;99.90;;;;;;12545502;28;20293;-38
2022/10/23 00:38:10;;;;;;;;;;;12.40;99.90;;;;;;12557633;28;19940;-38
2022/10/23 00:44:18;;;;;;;;;;;12.20;99.90;;;;;;12544580;28;19929;-38
2022/10/23 00:50:21;;;;;;;;;;;12.20;99.90;;;;;;12547371;28;20288;-39
2022/10/23 00:56:24;;;;;;;;;;;12.20;99.90;;;;;;12549619;28;19928;-38
2022/10/23 01:02:26;;;;;;;;;;;12.40;99.90;;;;;;12542738;28;19925;-38
2022/10/23 01:08:32;;;;;;;;;;;12.40;99.90;;;;;;12550848;28;20292;-39
2022/10/23 01:14:41;;;;;;;;;;;12.40;99.90;;;;;;12553768;28;20307;-38
2022/10/23 01:20:47;;;;;;;;;;;12.30;99.90;;;;;;12538433;28;20057;-38
2022/10/23 01:26:52;;;;;;;;;;;12.10;99.90;;;;;;12535871;28;20131;-39
2022/10/23 01:33:02;;;;;;;;;;;11.90;99.90;;;;;;12546990;28;19930;-38
2022/10/23 01:39:07;;;;;;;;;;;11.90;99.90;;;;;;12549243;28;19987;-38
2022/10/23 01:45:16;;;;;;;;;;;12.00;99.90;;;;;;12547032;28;19961;-39
2022/10/23 01:51:19;;;;;;;;;;;11.90;99.90;;;;;;12535442;28;19924;-38
2022/10/23 01:57:21;;;;;;;;;;;11.60;99.90;;;;;;12520926;28;19925;-38
2022/10/23 02:03:23;;;;;;;;;;;11.70;99.90;;;;;;12534483;28;20370;-38
2022/10/23 02:09:25;;;;;;;;;;;11.50;99.90;;;;;;12533816;28;20393;-38
2022/10/23 02:15:53;;;;;;;;;;;11.50;99.90;;;;;;12522850;28;19932;-38
2022/10/23 02:22:03;;;;;;;;;;;11.30;99.90;;;;;;12504405;28;20378;-39
2022/10/23 02:28:07;;;;;;;;;;;11.30;99.90;;;;;;12543656;28;19932;-38
2022/10/23 02:34:09;;;;;;;;;;;11.40;99.90;;;;;;12535407;28;19929;-38
2022/10/23 02:40:10;;;;;;;;;;;11.10;99.90;;;;;;12554266;28;20296;-38
2022/10/23 02:46:19;;;;;;;;;;;11.20;99.90;;;;;;12530446;28;19924;-38
2022/10/23 02:52:24;;;;;;;;;;;11.30;99.90;;;;;;12538636;28;19925;-38
2022/10/23 02:58:35;;;;;;;;;;;11.30;99.90;;;;;;12544792;28;19935;-39
2022/10/23 03:04:38;;;;;;;;;;;11.30;99.90;;;;;;12552794;28;19929;-38
2022/10/23 03:10:40;;;;;;;;;;;11.30;99.90;;;;;;12547016;28;19936;-38
2022/10/23 03:16:42;;;;;;;;;;;11.20;99.90;;;;;;12562439;28;19929;-38
2022/10/23 03:22:44;;;;;;;;;;;11.30;99.90;;;;;;12549737;28;20454;-38
2022/10/23 03:28:46;;;;;;;;;;;11.30;99.90;;;;;;12561892;28;20392;-38
2022/10/23 03:34:48;;;;;;;;;;;11.30;99.90;;;;;;12560811;28;19931;-38
2022/10/23 03:40:50;;;;;;;;;;;11.40;99.90;;;;;;12551909;28;20372;-38
2022/10/23 03:46:52;;;;;;;;;;;11.40;99.90;;;;;;12539266;28;19932;-38
2022/10/23 03:52:53;;;;;;;;;;;11.30;99.90;;;;;;12565241;28;19928;-38
2022/10/23 03:58:56;;;;;;;;;;;11.40;99.90;;;;;;12549660;28;19932;-38
2022/10/23 04:04:57;;;;;;;;;;;11.20;99.90;;;;;;12545443;28;19925;-38
2022/10/23 04:10:59;;;;;;;;;;;11.30;99.90;;;;;;12551694;28;20273;-38
2022/10/23 04:17:01;;;;;;;;;;;11.30;99.90;;;;;;12553746;28;20104;-38
2022/10/23 04:23:03;;;;;;;;;;;11.20;99.90;;;;;;12556137;28;20326;-38
2022/10/23 04:29:04;;;;;;;;;;;11.20;99.90;;;;;;12555611;28;19967;-38
2022/10/23 04:35:06;;;;;;;;;;;10.90;99.90;;;;;;12539089;28;19951;-38
2022/10/23 04:41:08;;;;;;;;;;;10.90;99.90;;;;;;12550380;28;19929;-38
2022/10/23 04:47:10;;;;;;;;;;;11.00;99.90;;;;;;12545387;28;19924;-38
2022/10/23 04:53:12;;;;;;;;;;;11.10;99.90;;;;;;12541383;28;20293;-38
2022/10/23 04:59:14;;;;;;;;;;;11.10;99.90;;;;;;12544549;28;20368;-38
2022/10/23 05:05:15;;;;;;;;;;;10.90;99.90;;;;;;12538586;28;20288;-39
2022/10/23 05:11:17;;;;;;;;;;;10.90;99.90;;;;;;12557072;28;19958;-38
2022/10/23 05:17:21;;;;;;;;;;;11.00;99.90;;;;;;12550049;28;19989;-38
2022/10/23 05:23:24;;;;;;;;;;;10.70;99.90;;;;;;12543055;28;19936;-38
2022/10/23 05:29:25;;;;;;;;;;;10.70;99.90;;;;;;12538220;28;20385;-38
2022/10/23 05:35:27;;;;;;;;;;;10.80;99.90;;;;;;12554672;28;19924;-38
2022/10/23 05:41:29;;;;;;;;;;;10.80;99.90;;;;;;12546455;28;19925;-38
2022/10/23 05:47:31;;;;;;;;;;;10.90;99.90;;;;;;12531491;28;19925;-38
2022/10/23 05:53:33;;;;;;;;;;;10.90;99.90;;;;;;12541588;28;19929;-38
2022/10/23 05:59:42;;;;;;;;;;;11.00;99.90;;;;;;12534490;28;19932;-39
2022/10/23 06:05:48;;;;;;;;;;;11.00;99.90;;;;;;12548691;28;19931;-38
2022/10/23 06:11:51;;;;;;;;;;;11.10;99.90;;;;;;12544224;28;19929;-38
2022/10/23 06:17:52;;;;;;;;;;;11.20;99.90;;;;;;12543581;28;20300;-38
2022/10/23 06:23:54;;;;;;;;;;;11.20;99.90;;;;;;12550725;28;20011;-38
2022/10/23 06:29:56;;;;;;;;;;;11.30;99.90;;;;;;12547198;28;20367;-38
2022/10/23 06:35:57;;;;;;;;;;;11.30;99.90;;;;;;12548574;28;19978;-38
2022/10/23 06:41:59;;;;;;;;;;;11.30;99.90;;;;;;12542823;28;19971;-38
2022/10/23 06:48:01;;;;;;;;;;;11.30;99.90;;;;;;12548063;28;20265;-38
2022/10/23 06:54:03;;;;;;;;;;;11.50;99.90;;;;;;12539865;28;19989;-38
2022/10/23 07:00:05;;;;;;;;;;;11.60;99.90;;;;;;12544519;28;19932;-38
2022/10/23 07:06:08;;;;;;;;;;;11.60;99.90;;;;;;12521675;28;20380;-39
2022/10/23 07:12:10;;;;;;;;;;;11.40;99.90;;;;;;12550861;28;20243;-38
2022/10/23 07:18:14;;;;;;;;;;;11.60;99.90;;;;;;12544299;28;19924;-38
2022/10/23 07:24:15;;;;;;;;;;;11.50;99.90;;;;;;12540410;28;20293;-39
2022/10/23 07:30:17;;;;;;;;;;;11.50;99.90;;;;;;12540932;28;19941;-38
2022/10/23 07:36:19;;;;;;;;;;;11.50;99.90;;;;;;12544698;28;19932;-40
2022/10/23 07:42:21;;;;;;;;;;;11.60;99.90;;;;;;12545815;28;20369;-38
2022/10/23 07:48:23;;;;;;;;;;;11.60;99.90;;;;;;12561802;28;19924;-38
2022/10/23 07:54:25;;;;;;;;;;;11.60;99.90;;;;;;12541113;28;20373;-39
2022/10/23 08:00:26;;;;;;;;;;;11.60;99.90;;;;;;12533750;28;20020;-38
2022/10/23 08:06:28;;;;;;;;;;;11.60;99.90;;;;;;12547085;28;19933;-38
2022/10/23 08:12:30;;;;;;;;;;;11.60;99.90;;;;;;12541989;28;19935;-38
2022/10/23 08:18:32;;;;;;;;;;;11.80;99.90;;;;;;12553213;28;19929;-38
2022/10/23 08:24:34;;;;;;;;;;;12.10;99.90;;;;;;12555550;28;20416;-39
2022/10/23 08:30:36;;;;;;;;;;;12.30;99.90;;;;;;12552419;28;19981;-38
2022/10/23 08:36:38;;;;;;;;;;;12.40;99.90;;;;;;12551628;28;20261;-38
2022/10/23 08:42:41;;;;;;;;;;;13.10;99.90;;;;;;12521137;28;21410;-39
2022/10/23 08:48:50;;;;;;;;;;;13.70;99.90;;;;;;12525626;28;19929;-39
2022/10/23 08:54:56;;;;;;;;;;;14.00;99.90;;;;;;12546842;28;19933;-39
2022/10/23 09:00:57;;;;;;;;;;;14.30;99.90;;;;;;12549640;28;19932;-38
2022/10/23 09:07:02;;;;;;;;;;;14.50;99.90;;;;;;12548835;28;19928;-38
2022/10/23 09:13:19;;;;;;;;;;;14.70;99.90;;;;;;12550368;28;20335;-39
2022/10/23 09:19:25;;;;;;;;;;;14.70;99.90;;;;;;12559145;28;19928;-39
2022/10/23 09:25:33;;;;;;;;;;;14.80;99.90;;;;;;12539382;28;19936;-38
2022/10/23 09:31:46;;;;;;;;;;;14.90;99.90;;;;;;12554183;28;19931;-38
2022/10/23 09:37:51;;;;;;;;;;;14.90;99.90;;;;;;12546248;28;19935;-39
2022/10/23 09:44:06;;;;;;;;;;;14.90;99.90;;;;;;12546776;28;20059;-39
2022/10/23 09:50:20;;;;;;;;;;;14.90;99.90;;;;;;12537569;28;19951;-39
2022/10/23 09:56:22;;;;;;;;;;;14.90;99.90;;;;;;12558003;28;19924;-39
2022/10/23 10:02:25;;;;;;;;;;;15.10;99.90;;;;;;12548177;28;19935;-38
2022/10/23 10:08:34;;;;;;;;;;;15.40;99.90;;;;;;12543738;28;19935;-38
2022/10/23 10:14:38;;;;;;;;;;;15.60;99.90;;;;;;12545746;28;19935;-38
2022/10/23 10:20:55;;;;;;;;;;;15.80;99.90;;;;;;12545281;28;19935;-38
2022/10/23 10:27:04;;;;;;;;;;;16.10;99.90;;;;;;12542993;28;19929;-39
2022/10/23 10:33:12;;;;;;;;;;;16.20;99.90;;;;;;12547828;28;19933;-39
2022/10/23 10:39:32;;;;;;;;;;;16.40;99.90;;;;;;12544818;28;19928;-39
2022/10/23 10:45:37;;;;;;;;;;;16.60;99.90;;;;;;12536868;28;19925;-39
2022/10/23 10:52:01;;;;;;;;;;;16.60;99.90;;;;;;12526526;28;19932;-39
2022/10/23 10:58:19;;;;;;;;;;;16.60;99.90;;;;;;12547443;28;19928;-38
2022/10/23 11:04:24;;;;;;;;;;;16.60;99.90;;;;;;12539786;28;19952;-39
2022/10/23 11:10:26;;;;;;;;;;;16.60;99.90;;;;;;12554794;28;19935;-40
2022/10/23 11:16:32;;;;;;;;;;;16.60;99.90;;;;;;12549033;28;19928;-39
2022/10/23 11:22:36;;;;;;;;;;;16.70;99.90;;;;;;12559824;28;19924;-38
2022/10/23 11:28:41;;;;;;;;;;;16.70;99.90;;;;;;12540051;28;19925;-38
2022/10/23 11:34:59;;;;;;;;;;;16.90;99.90;;;;;;12554174;28;19939;-39
2022/10/23 11:41:06;;;;;;;;;;;17.10;99.90;;;;;;12546925;28;19928;-39
2022/10/23 11:47:26;;;;;;;;;;;17.30;99.90;;;;;;12546990;28;20448;-39
2022/10/23 11:53:30;;;;;;;;;;;17.30;99.90;;;;;;12563057;28;20419;-39
2022/10/23 11:59:34;;;;;;;;;;;17.00;99.90;;;;;;12560449;28;20708;-39
2022/10/23 12:05:39;;;;;;;;;;;16.90;99.90;;;;;;12560216;28;20015;-39
2022/10/23 12:11:42;;;;;;;;;;;16.80;99.90;;;;;;12548550;28;19929;-39
2022/10/23 12:17:45;;;;;;;;;;;16.70;99.90;;;;;;12559468;28;20022;-39
2022/10/23 12:24:02;;;;;;;;;;;16.60;99.90;;;;;;12569194;28;19924;-39
2022/10/23 12:30:23;;;;;;;;;;;16.60;99.90;;;;;;12551342;28;19941;-39
2022/10/23 12:36:43;;;;;;;;;;;16.60;99.90;;;;;;12518511;28;19978;-38
2022/10/23 12:42:50;;;;;;;;;;;16.50;99.90;;;;;;12551527;28;19928;-39
2022/10/23 12:48:53;;;;;;;;;;;16.50;99.90;;;;;;12556584;28;19932;-39
2022/10/23 12:54:55;;;;;;;;;;;16.50;99.90;;;;;;12534575;28;19924;-39
2022/10/23 13:00:58;;;;;;;;;;;16.40;99.90;;;;;;12549560;28;20115;-39
2022/10/23 13:07:01;;;;;;;;;;;16.40;99.90;;;;;;12547708;28;20078;-39
2022/10/23 13:13:04;;;;;;;;;;;16.40;99.90;;;;;;12559243;28;19929;-39
2022/10/23 13:19:05;;;;;;;;;;;16.40;99.90;;;;;;12552873;28;19943;-39
2022/10/23 13:25:20;;;;;;;;;;;16.60;99.90;;;;;;12550207;28;19925;-39
2022/10/23 13:31:22;;;;;;;;;;;16.60;99.90;;;;;;12542955;28;20297;-40
2022/10/23 13:37:24;;;;;;;;;;;16.50;99.90;;;;;;12543788;28;19924;-39
2022/10/23 13:43:27;;;;;;;;;;;16.50;99.90;;;;;;12561011;28;19971;-38
2022/10/23 13:49:28;;;;;;;;;;;16.60;99.90;;;;;;12547130;28;19931;-38
2022/10/23 13:55:32;;;;;;;;;;;16.60;99.90;;;;;;12552593;28;19933;-39
2022/10/23 14:01:34;;;;;;;;;;;16.70;99.90;;;;;;12546796;28;20398;-40
2022/10/23 14:07:36;;;;;;;;;;;16.70;99.90;;;;;;12547764;28;19975;-39
2022/10/23 14:13:39;;;;;;;;;;;16.70;99.90;;;;;;12543754;28;19984;-39
2022/10/23 14:19:41;;;;;;;;;;;16.70;99.90;;;;;;12545907;28;20704;-38
2022/10/23 14:25:42;;;;;;;;;;;16.70;99.90;;;;;;12543118;28;19932;-39
2022/10/23 14:31:44;;;;;;;;;;;16.90;99.90;;;;;;12542951;28;19924;-39
2022/10/23 14:37:46;;;;;;;;;;;17.10;99.90;;;;;;12530656;28;19929;-39
2022/10/23 14:43:48;;;;;;;;;;;17.20;99.90;;;;;;12552924;28;19968;-39
2022/10/23 14:49:50;;;;;;;;;;;17.10;99.90;;;;;;12543525;28;19932;-39
2022/10/23 14:55:52;;;;;;;;;;;17.00;99.90;;;;;;12555159;28;19929;-39
2022/10/23 15:01:54;;;;;;;;;;;16.90;99.90;;;;;;12567638;28;20019;-39
2022/10/23 15:07:57;;;;;;;;;;;16.90;99.90;;;;;;12554725;28;19928;-39
2022/10/23 15:14:00;;;;;;;;;;;16.90;99.90;;;;;;12557272;28;19928;-39
2022/10/23 15:20:02;;;;;;;;;;;16.90;99.90;;;;;;12555417;28;21629;-39
2022/10/23 15:26:05;;;;;;;;;;;16.80;99.90;;;;;;12549720;28;19925;-39
2022/10/23 15:32:08;;;;;;;;;;;16.70;99.90;;;;;;12556601;28;20023;-38
2022/10/23 15:38:10;;;;;;;;;;;16.60;99.90;;;;;;12550757;28;19978;-38
2022/10/23 15:44:14;;;;;;;;;;;16.50;99.90;;;;;;12556403;28;19925;-38
2022/10/23 15:50:16;;;;;;;;;;;16.50;99.90;;;;;;12533739;28;19925;-39
2022/10/23 15:56:18;;;;;;;;;;;16.40;99.90;;;;;;12558945;28;19925;-39
2022/10/23 16:02:20;;;;;;;;;;;16.40;99.90;;;;;;12562401;28;19924;-39
2022/10/23 16:08:24;;;;;;;;;;;16.50;99.90;;;;;;12554417;28;20360;-39
2022/10/23 16:14:26;;;;;;;;;;;16.50;99.90;;;;;;12561678;28;20412;-38
2022/10/23 16:20:28;;;;;;;;;;;16.50;99.90;;;;;;12562335;28;19928;-39
2022/10/23 16:26:30;;;;;;;;;;;16.40;99.90;;;;;;12560326;28;20288;-39
2022/10/23 16:32:32;;;;;;;;;;;16.40;99.90;;;;;;12552742;28;20303;-40
2022/10/23 16:38:34;;;;;;;;;;;16.40;99.90;;;;;;12560528;28;19928;-38
2022/10/23 16:44:36;;;;;;;;;;;16.40;99.90;;;;;;12556890;28;20269;-39
2022/10/23 16:50:39;;;;;;;;;;;16.30;99.90;;;;;;12561703;28;19933;-39
2022/10/23 16:56:47;;;;;;;;;;;16.30;99.90;;;;;;12557195;28;19940;-39
2022/10/23 17:02:49;;;;;;;;;;;16.40;99.90;;;;;;12552553;28;19925;-39
2022/10/23 17:08:51;;;;;;;;;;;16.40;99.90;;;;;;12539469;28;19925;-38
2022/10/23 17:14:53;;;;;;;;;;;16.30;99.90;;;;;;12557732;28;19925;-39
2022/10/23 17:20:55;;;;;;;;;;;15.80;99.90;;;;;;12541786;28;20384;-39
2022/10/23 17:26:57;;;;;;;;;;;15.40;99.90;;;;;;12548161;28;19929;-39
2022/10/23 17:32:59;;;;;;;;;;;15.20;99.90;;;;;;12546577;28;19932;-39
2022/10/23 17:39:06;;;;;;;;;;;15.10;99.90;;;;;;12536145;28;19931;-39
2022/10/23 17:45:08;;;;;;;;;;;15.20;99.90;;;;;;12550631;28;19933;-38
2022/10/23 17:51:12;;;;;;;;;;;15.10;99.90;;;;;;12544617;28;20433;-39
2022/10/23 17:57:13;;;;;;;;;;;15.20;99.90;;;;;;12548528;28;20428;-39
2022/10/23 18:03:15;;;;;;;;;;;15.10;99.90;;;;;;12530189;28;19925;-39
2022/10/23 18:09:21;;;;;;;;;;;15.20;99.90;;;;;;12558589;28;20310;-39
2022/10/23 18:15:22;;;;;;;;;;;15.10;99.90;;;;;;12524656;28;20286;-39
2022/10/23 18:21:24;;;;;;;;;;;15.00;99.90;;;;;;12536596;28;19924;-39
2022/10/23 18:27:26;;;;;;;;;;;14.90;99.90;;;;;;12544319;28;19924;-39
2022/10/23 18:33:28;;;;;;;;;;;14.90;99.90;;;;;;12544278;28;19929;-38
2022/10/23 18:39:30;;;;;;;;;;;14.90;99.90;;;;;;12552490;28;20248;-38
2022/10/23 18:45:32;;;;;;;;;;;15.00;99.90;;;;;;12545967;28;19929;-38
2022/10/23 18:51:34;;;;;;;;;;;15.00;99.90;;;;;;12534789;28;20001;-38
2022/10/23 18:57:36;;;;;;;;;;;15.00;99.90;;;;;;12540023;28;19925;-39
2022/10/23 19:03:38;;;;;;;;;;;14.90;99.90;;;;;;12535709;28;19929;-39
2022/10/23 19:09:41;;;;;;;;;;;15.00;99.90;;;;;;12554432;28;20030;-39
2022/10/23 19:15:43;;;;;;;;;;;14.90;99.90;;;;;;12555409;28;19925;-39
2022/10/23 19:21:46;;;;;;;;;;;14.90;99.90;;;;;;12551209;28;19973;-39
2022/10/23 19:27:48;;;;;;;;;;;14.90;99.90;;;;;;12549004;28;19955;-38
2022/10/23 19:33:50;;;;;;;;;;;14.90;99.90;;;;;;12550279;28;19925;-38
2022/10/23 19:39:51;;;;;;;;;;;14.80;99.90;;;;;;12552833;28;19929;-39
2022/10/23 19:45:53;;;;;;;;;;;14.70;99.90;;;;;;12553159;28;19925;-39
2022/10/23 19:51:55;;;;;;;;;;;14.70;99.90;;;;;;12562656;28;19924;-40
2022/10/23 19:57:57;;;;;;;;;;;14.80;99.90;;;;;;12562541;28;19932;-38
2022/10/23 20:03:58;;;;;;;;;;;14.80;99.90;;;;;;12551891;28;19928;-39
2022/10/23 20:10:00;;;;;;;;;;;14.80;99.90;;;;;;12554160;28;19925;-39
2022/10/23 20:16:02;;;;;;;;;;;14.80;99.90;;;;;;12561890;28;19924;-38
2022/10/23 20:22:04;;;;;;;;;;;14.90;99.90;;;;;;12545980;28;20476;-39
2022/10/23 20:28:05;;;;;;;;;;;15.00;99.90;;;;;;12561320;28;20373;-39
2022/10/23 20:34:12;;;;;;;;;;;14.80;99.90;;;;;;12549353;28;20274;-38
2022/10/23 20:40:14;;;;;;;;;;;14.80;99.90;;;;;;12549739;28;19935;-38
2022/10/23 20:46:15;;;;;;;;;;;14.70;99.90;;;;;;12556184;28;19928;-39
2022/10/23 20:52:17;;;;;;;;;;;14.70;99.90;;;;;;12546916;28;19925;-39
2022/10/23 20:58:19;;;;;;;;;;;14.60;99.90;;;;;;12544489;28;19933;-39
2022/10/23 21:04:27;;;;;;;;;;;14.60;99.90;;;;;;12552773;28;19925;-39
2022/10/23 21:10:28;;;;;;;;;;;14.60;99.90;;;;;;12547523;28;19936;-39
2022/10/23 21:16:35;;;;;;;;;;;14.50;99.90;;;;;;12567507;28;19924;-39
2022/10/23 21:22:37;;;;;;;;;;;14.50;99.90;;;;;;12548243;28;19928;-38
2022/10/23 21:28:39;;;;;;;;;;;14.50;99.90;;;;;;12558779;28;19928;-38
2022/10/23 21:34:56;;;;;;;;;;;14.60;99.90;;;;;;12545876;28;20292;-38
2022/10/23 21:41:08;;;;;;;;;;;14.60;99.90;;;;;;12545724;28;20276;-39
2022/10/23 21:47:10;;;;;;;;;;;14.60;99.90;;;;;;12546342;28;20400;-39
2022/10/23 21:53:11;;;;;;;;;;;14.60;99.90;;;;;;12566217;28;20332;-38
2022/10/23 21:59:15;;;;;;;;;;;14.60;99.90;;;;;;12529020;28;19925;-38
2022/10/23 22:05:17;;;;;;;;;;;14.60;99.90;;;;;;12550474;28;19925;-38
2022/10/23 22:11:20;;;;;;;;;;;14.60;99.90;;;;;;12543016;28;20400;-39
2022/10/23 22:17:22;;;;;;;;;;;14.60;99.90;;;;;;12548193;28;20378;-38
2022/10/23 22:23:24;;;;;;;;;;;14.50;99.90;;;;;;12553754;28;19948;-39
2022/10/23 22:29:26;;;;;;;;;;;14.60;99.90;;;;;;12552252;28;19932;-38
2022/10/23 22:35:28;;;;;;;;;;;14.70;99.90;;;;;;12545543;28;20424;-38
2022/10/23 22:41:30;;;;;;;;;;;14.80;99.90;;;;;;12540572;28;19929;-38
2022/10/23 22:47:32;;;;;;;;;;;14.90;99.90;;;;;;12533713;28;20034;-38
2022/10/23 22:53:35;;;;;;;;;;;15.00;99.90;;;;;;12543612;28;20506;-39
2022/10/23 22:59:36;;;;;;;;;;;14.80;99.90;;;;;;12550707;28;19928;-38
2022/10/23 23:05:42;;;;;;;;;;;14.70;99.90;;;;;;12547727;28;19980;-39
2022/10/23 23:11:44;;;;;;;;;;;14.60;99.90;;;;;;12551918;28;19932;-39
2022/10/23 23:17:52;;;;;;;;;;;14.50;99.90;;;;;;12552592;28;19993;-38
2022/10/23 23:23:55;;;;;;;;;;;14.50;99.90;;;;;;12550557;28;19924;-39
2022/10/23 23:29:56;;;;;;;;;;;14.50;99.90;;;;;;12555226;28;19925;-39
2022/10/23 23:35:58;;;;;;;;;;;14.40;99.90;;;;;;12546233;28;20400;-39
2022/10/23 23:42:00;;;;;;;;;;;14.50;99.90;;;;;;12559318;28;19928;-39
2022/10/23 23:48:02;;;;;;;;;;;14.40;99.90;;;;;;12558949;28;20011;-39
2022/10/23 23:54:04;;;;;;;;;;;14.50;99.90;;;;;;12550952;28;20305;-39
